Crystal Island — 3EZJ3 — position and weather

sailwx.info

Track history (hours):
 
Tides and Currents Weather Stations Pressure Air Temp Water Temp Dewpoint Dewpoint Depression Visibility Wind Speed Wind Dir Waves Ship Positions

Crystal Island

Last reported at 2015-May-22 15:03 UTC. Time now 2015-May-30 02:29 UTC.
Position N 35°11' E 140°38'.

Length 169 m; draft 5.1 m.

Type: Cargo ship. MMSI: 372562000.

Date/timePositionNaut miles runAvg speedWind from/ knotsBaromVisibWave heightAir tempDewpointWater temp
2015-May-22 15:03N 35°11' E 140°38'714.6
2015-May-22 14:32N 35°05' E 140°32'1413.6
2015-May-22 13:29N 34°56' E 140°19'1213.0
2015-May-22 12:33N 34°47' E 140°08'1312.8
2015-May-22 11:31N 34°38' E 139°57'1212.7
2015-May-22 10:33N 34°31' E 139°45'1512.7
2015-May-22 09:23N 34°22' E 139°31'4612.0
2015-May-22 05:31N 34°01' E 138°41'18412.0
2015-May-21 14:12N 33°45' E 134°60'1111.1
2015-May-21 13:14N 33°55' E 134°55'812.4
2015-May-21 12:33N 34°03' E 134°55'1212.1
2015-May-21 11:33N 34°15' E 134°58'1212.1
2015-May-21 10:33N 34°27' E 135°03'8 8.5
2015-May-21 09:33N 34°35' E 135°05'212 5.0
2015-May-19 15:32N 34°01' E 130°51'22 7.2
2015-May-19 12:29N 34°23' E 130°46'  
Track history (hours):
 
Tides and Currents Weather Stations Pressure Air Temp Water Temp Dewpoint Dewpoint Depression Visibility Wind Speed Wind Dir Waves Ship Positions

Crystal Island

Last reported at 2015-May-22 15:03 UTC. Time now 2015-May-30 02:29 UTC.
Position N 35°11' E 140°38'.

Length 169 m; draft 5.1 m.

Type: Cargo ship. MMSI: 372562000.

Date/timePositionNaut miles runAvg speedWind from/ knotsBaromVisibWave heightAir tempDewpointWater temp
2015-May-22 15:03N 35°11' E 140°38'714.6
2015-May-22 14:32N 35°05' E 140°32'1413.6
2015-May-22 13:29N 34°56' E 140°19'1213.0
2015-May-22 12:33N 34°47' E 140°08'1312.8
2015-May-22 11:31N 34°38' E 139°57'1212.7
2015-May-22 10:33N 34°31' E 139°45'1512.7
2015-May-22 09:23N 34°22' E 139°31'4612.0
2015-May-22 05:31N 34°01' E 138°41'18412.0
2015-May-21 14:12N 33°45' E 134°60'1111.1
2015-May-21 13:14N 33°55' E 134°55'812.4
2015-May-21 12:33N 34°03' E 134°55'1212.1
2015-May-21 11:33N 34°15' E 134°58'1212.1
2015-May-21 10:33N 34°27' E 135°03'8 8.5
2015-May-21 09:33N 34°35' E 135°05'212 5.0
2015-May-19 15:32N 34°01' E 130°51'22 7.2
2015-May-19 12:29N 34°23' E 130°46'  

Dump ship's entire track history